San Francisco, California
Traffic Map
Current Weather Conditions
San Francisco, California
Overcast
Overcast
60°
Feels Like: 60°
Wind Chill: 60° Ceiling: 1900
Heat Index: 60° Visibility: 10mi
Dew Point: 51° Wind: 13mph
Humidity: 72% Direction: 280° (W)
Pressure: 29.97in Gusts: 0mph
Raw Report DataKSFO 231756Z 28011KT 10SM SCT013 BKN019 OVC025 16/11 A2997 RMK AO2 SLP149 T01560106 10156 20128 51010
Traffic Incident Summary
Active as of:
Severity:
Category:
InformationThere was an issue retrieving the traffic information for this location. Please try a different location or try again shortly.
Advertisements